Time;durP1;ratioP1;P1;durP2;ratioP2;P2;SDS_P1;SDS_P2;PMS_P1;PMS_P2;Temp;Humidity;BMP_temperature;BMP_pressure;BME280_temperature;BME280_humidity;BME280_pressure;Samples;Min_cycle;Max_cycle;Signal;HPM_P1;HPM_P2
2021/11/16 00:01:26;;;;;;;20.23;17.13;;;8.90;92.80;;;;;;4994104;28;20239;-89
2021/11/16 00:03:55;;;;;;;18.80;16.73;;;8.90;92.90;;;;;;5009228;28;20467;-89
2021/11/16 00:06:29;;;;;;;18.53;16.60;;;9.00;92.60;;;;;;4996223;28;20697;-89
2021/11/16 00:08:55;;;;;;;19.33;17.33;;;9.00;92.30;;;;;;5012134;28;20623;-89
2021/11/16 00:11:21;;;;;;;20.40;18.13;;;9.00;92.10;;;;;;4977427;28;20225;-89
2021/11/16 00:13:50;;;;;;;21.33;18.20;;;9.00;92.50;;;;;;4978691;28;20201;-89
2021/11/16 00:16:17;;;;;;;19.27;17.27;;;9.00;92.20;;;;;;5012894;28;20211;-89
2021/11/16 00:18:50;;;;;;;22.20;18.23;;;9.00;92.50;;;;;;5010195;28;20213;-89
2021/11/16 00:21:19;;;;;;;20.17;17.43;;;8.90;93.10;;;;;;5010157;28;20207;-88
2021/11/16 00:23:52;;;;;;;19.70;16.57;;;8.90;93.10;;;;;;5011932;28;20188;-89
2021/11/16 00:26:18;;;;;;;21.90;18.30;;;8.90;93.50;;;;;;4994163;28;20190;-88
2021/11/16 00:28:49;;;;;;;21.17;17.33;;;8.80;93.30;;;;;;5010461;28;20669;-87
2021/11/16 00:31:18;;;;;;;20.73;18.00;;;8.90;93.40;;;;;;4982662;28;21104;-89
2021/11/16 00:33:44;;;;;;;20.03;18.03;;;8.90;93.00;;;;;;4998874;28;20274;-88
2021/11/16 00:36:12;;;;;;;21.47;18.63;;;9.00;92.70;;;;;;5009517;28;20625;-88
2021/11/16 00:38:40;;;;;;;25.10;20.67;;;8.90;92.60;;;;;;4992253;28;20711;-88
2021/11/16 00:41:06;;;;;;;24.73;21.47;;;8.90;92.80;;;;;;4993253;28;20234;-88
2021/11/16 00:43:32;;;;;;;22.77;20.07;;;8.70;93.20;;;;;;5011108;28;20196;-88
2021/11/16 00:45:58;;;;;;;24.20;20.40;;;8.60;93.80;;;;;;5009069;28;20578;-88
2021/11/16 00:48:25;;;;;;;23.33;20.73;;;8.60;94.00;;;;;;5011895;28;20211;-88
2021/11/16 00:50:56;;;;;;;24.17;19.93;;;8.70;93.40;;;;;;5011092;28;20198;-88
2021/11/16 00:53:24;;;;;;;22.93;19.50;;;8.70;91.60;;;;;;4988315;28;20195;-88
2021/11/16 00:55:51;;;;;;;19.93;17.83;;;8.60;92.20;;;;;;5011207;28;20198;-88
2021/11/16 00:58:18;;;;;;;22.17;19.60;;;8.60;93.10;;;;;;5010538;28;20209;-88
2021/11/16 01:00:44;;;;;;;23.57;19.57;;;8.50;92.50;;;;;;5009378;28;20214;-87
2021/11/16 01:03:12;;;;;;;22.87;18.80;;;8.40;90.70;;;;;;5008709;28;20216;-88
2021/11/16 01:05:39;;;;;;;24.27;20.43;;;8.50;90.20;;;;;;4993143;28;20606;-88
2021/11/16 01:08:06;;;;;;;23.27;18.90;;;8.60;90.20;;;;;;5015550;28;20590;-88
2021/11/16 01:10:32;;;;;;;22.63;19.30;;;8.50;90.10;;;;;;5009230;28;20186;-89
2021/11/16 01:12:58;;;;;;;21.63;18.53;;;8.40;89.40;;;;;;5010310;28;20201;-90
2021/11/16 01:15:24;;;;;;;21.57;18.63;;;8.30;90.70;;;;;;5009170;28;20189;-88
2021/11/16 01:17:50;;;;;;;23.53;18.80;;;8.40;90.80;;;;;;5013039;28;20220;-88
2021/11/16 01:20:18;;;;;;;23.07;20.27;;;8.50;90.80;;;;;;4978450;28;20221;-89
2021/11/16 01:22:46;;;;;;;23.53;19.53;;;8.50;90.70;;;;;;5016488;28;20195;-88
2021/11/16 01:25:12;;;;;;;25.07;19.17;;;8.50;89.30;;;;;;5014871;28;20201;-88
2021/11/16 01:27:39;;;;;;;24.30;19.93;;;8.40;90.30;;;;;;5014994;28;20233;-88
2021/11/16 01:30:10;;;;;;;24.13;19.23;;;8.40;89.40;;;;;;5016515;28;20194;-89
2021/11/16 01:32:46;;;;;;;19.77;17.67;;;8.30;90.90;;;;;;4988323;28;20194;-89
2021/11/16 01:35:12;;;;;;;21.70;18.03;;;8.30;91.90;;;;;;5014673;28;20641;-88
2021/11/16 01:37:39;;;;;;;23.27;18.80;;;8.40;91.90;;;;;;5014151;28;20308;-88
2021/11/16 01:40:17;;;;;;;20.37;17.60;;;8.50;91.00;;;;;;4998010;28;20674;-89
2021/11/16 01:42:46;;;;;;;21.07;17.07;;;8.60;90.40;;;;;;5013402;28;20194;-88
2021/11/16 01:45:12;;;;;;;20.40;17.23;;;8.70;90.90;;;;;;5015429;28;20208;-88
2021/11/16 01:47:38;;;;;;;19.93;17.67;;;8.60;90.80;;;;;;5015437;28;20207;-88
2021/11/16 01:50:06;;;;;;;22.63;18.80;;;8.70;90.70;;;;;;4998891;28;20194;-88
2021/11/16 01:52:32;;;;;;;23.53;19.33;;;8.70;89.90;;;;;;5012756;28;20193;-88
2021/11/16 01:54:58;;;;;;;20.47;17.50;;;8.70;89.50;;;;;;4980240;28;20714;-88
2021/11/16 01:57:24;;;;;;;20.40;18.03;;;8.60;90.40;;;;;;4997239;28;20203;-89
2021/11/16 01:59:50;;;;;;;23.00;17.93;;;8.60;91.20;;;;;;5012499;28;20220;-89
2021/11/16 02:02:15;;;;;;;23.23;18.77;;;8.60;90.60;;;;;;5013811;28;20281;-89
2021/11/16 02:04:41;;;;;;;22.47;19.00;;;8.60;90.00;;;;;;5014589;28;20218;-89
2021/11/16 02:07:07;;;;;;;25.97;21.80;;;8.60;90.40;;;;;;5012745;28;20227;-88
2021/11/16 02:09:35;;;;;;;27.97;23.17;;;8.60;90.00;;;;;;5015016;28;20587;-89
2021/11/16 02:12:01;;;;;;;22.73;17.70;;;8.70;89.20;;;;;;4980675;28;20226;-88
2021/11/16 02:14:27;;;;;;;21.17;17.93;;;8.80;89.30;;;;;;4981434;28;20206;-89
2021/11/16 02:16:55;;;;;;;21.47;17.60;;;8.80;90.20;;;;;;5013265;28;20229;-88
2021/11/16 02:19:22;;;;;;;18.63;15.67;;;8.80;91.50;;;;;;5015076;28;20214;-89
2021/11/16 02:21:49;;;;;;;18.20;15.60;;;8.70;92.50;;;;;;5013610;28;20205;-89
2021/11/16 02:24:16;;;;;;;18.03;16.13;;;8.70;92.70;;;;;;5013038;28;20199;-89
2021/11/16 02:26:42;;;;;;;19.00;16.90;;;8.60;92.90;;;;;;5013825;28;20195;-89
2021/11/16 02:29:08;;;;;;;18.70;16.70;;;8.60;92.90;;;;;;5014128;28;20618;-89
2021/11/16 02:31:34;;;;;;;18.87;16.33;;;8.70;92.90;;;;;;5013017;28;20215;-89
2021/11/16 02:34:01;;;;;;;20.60;16.47;;;8.70;92.70;;;;;;5011623;28;20599;-89
2021/11/16 02:36:29;;;;;;;23.37;18.63;;;8.70;92.10;;;;;;4995987;28;20195;-89
2021/11/16 02:38:55;;;;;;;21.63;19.23;;;8.60;91.60;;;;;;4981308;28;20638;-89
2021/11/16 02:41:22;;;;;;;24.03;18.70;;;8.60;90.70;;;;;;5026673;28;20227;-88
2021/11/16 02:43:49;;;;;;;25.03;20.10;;;8.60;89.70;;;;;;5033189;28;20217;-89
2021/11/16 02:46:15;;;;;;;21.77;19.47;;;8.50;89.20;;;;;;5024534;28;20186;-89
2021/11/16 02:48:40;;;;;;;24.07;19.53;;;8.60;89.30;;;;;;5013254;28;20772;-89
2021/11/16 02:51:10;;;;;;;22.87;19.67;;;8.50;89.20;;;;;;4996712;28;20192;-89
2021/11/16 02:53:38;;;;;;;23.63;19.90;;;8.50;89.70;;;;;;4996695;28;20193;-89
2021/11/16 02:56:06;;;;;;;23.20;19.20;;;8.50;90.10;;;;;;5012072;28;20246;-89
2021/11/16 02:58:32;;;;;;;21.07;18.77;;;8.50;89.80;;;;;;5012977;28;20210;-89
2021/11/16 03:01:04;;;;;;;23.63;18.87;;;8.40;90.60;;;;;;5013384;28;20556;-89
2021/11/16 03:03:30;;;;;;;22.67;18.93;;;8.40;90.50;;;;;;4992384;28;20215;-89
2021/11/16 03:05:56;;;;;;;22.63;18.60;;;8.50;90.70;;;;;;5006993;28;20199;-90
2021/11/16 03:08:26;;;;;;;22.63;17.97;;;8.50;90.90;;;;;;4997228;28;20206;-89
2021/11/16 03:10:55;;;;;;;23.77;19.87;;;8.60;90.70;;;;;;5012164;28;20198;-89
2021/11/16 03:13:21;;;;;;;23.63;19.00;;;8.50;90.40;;;;;;4995523;28;20194;-90
2021/11/16 03:15:47;;;;;;;19.40;17.30;;;8.50;90.90;;;;;;5011456;28;20214;-90
2021/11/16 03:18:14;;;;;;;26.07;18.87;;;8.60;90.70;;;;;;4987301;28;20243;-90
2021/11/16 03:20:40;;;;;;;21.57;17.87;;;8.70;89.50;;;;;;5009459;28;20209;-90
2021/11/16 03:23:10;;;;;;;24.40;19.07;;;8.50;89.40;;;;;;5011312;28;20272;-89
2021/11/16 03:25:41;;;;;;;23.63;19.63;;;8.50;89.80;;;;;;5010504;28;20186;-89
2021/11/16 03:28:09;;;;;;;19.80;16.73;;;8.50;89.80;;;;;;4990485;28;20286;-89
2021/11/16 03:30:36;;;;;;;21.10;17.70;;;8.50;91.00;;;;;;5010604;28;20742;-89
2021/11/16 03:33:02;;;;;;;19.67;15.97;;;8.60;89.80;;;;;;5011009;28;20191;-89
2021/11/16 03:35:29;;;;;;;18.07;15.00;;;8.70;91.80;;;;;;4988724;28;20203;-90
2021/11/16 03:37:58;;;;;;;20.03;15.80;;;8.60;92.10;;;;;;5009595;28;20780;-89
2021/11/16 03:40:26;;;;;;;19.87;15.40;;;8.50;91.60;;;;;;5010646;28;20213;-89
2021/11/16 03:42:52;;;;;;;18.00;15.50;;;8.50;91.90;;;;;;4980265;28;20662;-90
2021/11/16 03:45:22;;;;;;;17.87;14.77;;;8.50;92.10;;;;;;5009395;28;20196;-90
2021/11/16 03:47:48;;;;;;;22.03;17.33;;;8.50;92.30;;;;;;4991642;28;20296;-89
2021/11/16 03:50:17;;;;;;;17.73;15.83;;;8.40;92.60;;;;;;5012213;28;20600;-89
2021/11/16 03:52:45;;;;;;;18.83;16.23;;;8.40;93.20;;;;;;5010961;28;20243;-90
2021/11/16 03:55:12;;;;;;;20.00;17.13;;;8.50;92.70;;;;;;5008013;28;20766;-89
2021/11/16 03:57:38;;;;;;;20.53;17.70;;;8.50;92.60;;;;;;5011190;28;20244;-89
2021/11/16 04:00:08;;;;;;;20.63;17.03;;;8.50;92.60;;;;;;4990690;28;20209;-89
2021/11/16 04:02:34;;;;;;;22.13;16.87;;;8.50;91.90;;;;;;5010221;28;20198;-90
2021/11/16 04:05:00;;;;;;;19.07;16.23;;;8.60;91.90;;;;;;5009472;28;20200;-89
2021/11/16 04:07:25;;;;;;;19.20;16.13;;;8.50;92.30;;;;;;5011728;28;20277;-89
2021/11/16 04:09:51;;;;;;;17.03;15.07;;;8.50;92.60;;;;;;5011141;28;20857;-90
2021/11/16 04:12:17;;;;;;;17.67;14.47;;;8.40;92.80;;;;;;5009362;28;20239;-89
2021/11/16 04:14:42;;;;;;;18.13;15.40;;;8.40;93.20;;;;;;5013424;28;20205;-90
2021/11/16 04:17:08;;;;;;;17.17;15.37;;;8.50;93.30;;;;;;4996200;28;20305;-90
2021/11/16 04:19:34;;;;;;;21.27;16.70;;;8.50;93.20;;;;;;5008563;28;20287;-89
2021/11/16 04:22:00;;;;;;;22.27;15.63;;;8.50;93.20;;;;;;5007502;28;20717;-90
2021/11/16 04:24:25;;;;;;;21.30;16.50;;;8.40;92.60;;;;;;4993818;28;20194;-89
2021/11/16 04:26:51;;;;;;;17.67;15.03;;;8.40;92.80;;;;;;5011371;28;20228;-89
2021/11/16 04:29:17;;;;;;;20.63;15.23;;;8.50;93.80;;;;;;5010593;28;20709;-89
2021/11/16 04:31:44;;;;;;;15.90;14.13;;;8.50;94.00;;;;;;4992975;28;20191;-89
2021/11/16 04:34:10;;;;;;;16.70;14.87;;;8.50;95.00;;;;;;5008740;28;20190;-88
2021/11/16 04:36:35;;;;;;;17.07;14.33;;;8.50;96.00;;;;;;5009041;28;20277;-89
2021/11/16 04:39:04;;;;;;;18.07;13.87;;;8.50;95.60;;;;;;5010837;28;20590;-89
2021/11/16 04:41:29;;;;;;;15.13;13.47;;;8.50;95.60;;;;;;5008798;28;20599;-89
2021/11/16 04:43:58;;;;;;;17.90;13.70;;;8.50;95.70;;;;;;5008886;28;20193;-89
2021/11/16 04:46:25;;;;;;;15.57;13.60;;;8.40;95.60;;;;;;5010545;28;20442;-89
2021/11/16 04:49:04;;;;;;;18.73;16.13;;;8.30;96.30;;;;;;5011767;28;20757;-89
2021/11/16 04:54:26;;;;;;;17.43;14.60;;;8.40;95.80;;;;;;4992983;28;20967;-88
2021/11/16 05:04:54;;;;;;;15.87;13.57;;;8.30;94.90;;;;;;4995840;28;20200;-89
2021/11/16 05:07:23;;;;;;;18.63;14.47;;;8.30;95.80;;;;;;5012971;28;20190;-89
2021/11/16 05:09:52;;;;;;;16.33;14.30;;;8.30;95.70;;;;;;5012374;28;20183;-89
2021/11/16 05:12:19;;;;;;;19.47;15.77;;;8.30;95.40;;;;;;4996212;28;20255;-89
2021/11/16 05:14:46;;;;;;;20.67;16.60;;;8.40;94.80;;;;;;5008703;28;20213;-89
2021/11/16 05:17:12;;;;;;;22.30;17.07;;;8.40;94.60;;;;;;5012339;28;20865;-88
2021/11/16 05:19:38;;;;;;;18.13;15.37;;;8.40;93.90;;;;;;5008947;28;20355;-89
2021/11/16 05:22:04;;;;;;;20.37;15.83;;;8.30;94.40;;;;;;5007497;28;20191;-90
2021/11/16 05:24:30;;;;;;;20.53;16.67;;;8.30;95.10;;;;;;4992120;28;20197;-88
2021/11/16 05:26:56;;;;;;;16.47;14.80;;;8.30;95.20;;;;;;5011737;28;20213;-88
2021/11/16 05:29:22;;;;;;;18.17;14.93;;;8.30;95.20;;;;;;5011975;28;20269;-90
2021/11/16 05:31:47;;;;;;;18.10;14.97;;;8.40;95.30;;;;;;5011838;28;20253;-89
2021/11/16 05:34:13;;;;;;;15.77;13.37;;;8.30;96.50;;;;;;5013835;28;20240;-88
2021/11/16 05:36:39;;;;;;;17.17;13.73;;;8.30;97.20;;;;;;5011233;28;20201;-89
2021/11/16 05:39:06;;;;;;;16.23;12.87;;;8.30;96.70;;;;;;5012238;28;20242;-89
2021/11/16 05:41:33;;;;;;;18.57;14.13;;;8.30;96.50;;;;;;5012168;28;20271;-89
2021/11/16 05:43:59;;;;;;;18.83;15.00;;;8.40;96.90;;;;;;5010574;28;20239;-88
2021/11/16 05:46:25;;;;;;;17.60;14.63;;;8.40;96.80;;;;;;5013025;28;20189;-88
2021/11/16 05:48:53;;;;;;;18.07;15.10;;;8.40;96.70;;;;;;5013048;28;20821;-89
2021/11/16 05:51:23;;;;;;;19.47;15.53;;;8.30;96.70;;;;;;5009415;28;20186;-89
2021/11/16 05:53:55;;;;;;;18.93;16.17;;;8.30;96.70;;;;;;4990019;28;20268;-88
2021/11/16 05:56:23;;;;;;;19.30;16.03;;;8.30;96.60;;;;;;5021742;28;20186;-88
2021/11/16 05:58:52;;;;;;;16.50;14.73;;;8.30;96.60;;;;;;5004689;28;20283;-88
2021/11/16 06:01:23;;;;;;;19.27;17.23;;;8.30;96.80;;;;;;5019974;28;20241;-88
2021/11/16 06:03:53;;;;;;;19.97;16.60;;;8.20;97.80;;;;;;4991637;28;20232;-88
2021/11/16 06:06:31;;;;;;;16.93;15.00;;;8.10;98.20;;;;;;5008023;28;20273;-88
2021/11/16 06:08:59;;;;;;;18.13;15.87;;;8.20;98.10;;;;;;5007041;28;20202;-88
2021/11/16 06:11:26;;;;;;;20.10;16.47;;;8.20;97.90;;;;;;5001347;28;20825;-88
2021/11/16 06:13:53;;;;;;;19.13;15.40;;;8.30;97.20;;;;;;5014486;28;20705;-87
2021/11/16 06:16:20;;;;;;;20.67;16.23;;;8.30;97.20;;;;;;5017409;28;20215;-88
2021/11/16 06:18:55;;;;;;;17.50;13.83;;;8.30;97.20;;;;;;5015289;28;20220;-88
2021/11/16 06:21:22;;;;;;;18.10;14.60;;;8.30;97.30;;;;;;5024573;28;20305;-88
2021/11/16 06:23:49;;;;;;;18.13;15.30;;;8.30;97.40;;;;;;5007387;28;20217;-88
2021/11/16 06:26:15;;;;;;;17.40;14.23;;;8.30;97.30;;;;;;4988510;28;20203;-89
2021/11/16 06:28:42;;;;;;;25.83;23.43;;;8.40;97.30;;;;;;5010829;28;20209;-88
2021/11/16 06:31:08;;;;;;;19.37;16.70;;;8.30;97.20;;;;;;4998396;28;20218;-88
2021/11/16 06:33:34;;;;;;;17.87;14.53;;;8.30;97.10;;;;;;5018130;28;20261;-88
2021/11/16 06:36:00;;;;;;;19.67;16.90;;;8.30;96.90;;;;;;5015049;28;20184;-88
2021/11/16 07:06:50;;;;;;;22.70;18.07;;;8.20;97.30;;;;;;5042647;28;20642;-92
2021/11/16 07:09:17;;;;;;;20.93;18.60;;;8.30;96.50;;;;;;5043539;28;20563;-91
2021/11/16 07:11:43;;;;;;;26.83;18.47;;;8.20;96.70;;;;;;5023728;28;20189;-92
2021/11/16 07:14:10;;;;;;;25.03;19.30;;;8.30;96.60;;;;;;5026326;28;20196;-92
2021/11/16 07:16:41;;;;;;;25.47;19.53;;;8.20;96.60;;;;;;5025529;28;20189;-91
2021/11/16 07:19:09;;;;;;;23.60;19.50;;;8.10;97.50;;;;;;5022933;28;20572;-92
2021/11/16 07:21:48;;;;;;;22.53;18.77;;;8.00;97.60;;;;;;5024465;28;20880;-92
2021/11/16 07:24:44;;;;;;;22.83;18.53;;;8.00;98.00;;;;;;5024378;28;20208;-91
2021/11/16 07:27:11;;;;;;;26.83;18.40;;;8.10;97.70;;;;;;5028305;28;20188;-92
2021/11/16 07:29:46;;;;;;;21.27;17.53;;;8.10;98.30;;;;;;5039261;28;20177;-92
2021/11/16 07:32:43;;;;;;;25.43;20.63;;;8.10;98.40;;;;;;5044138;28;20904;-91
2021/11/16 07:35:09;;;;;;;22.87;18.93;;;8.10;99.10;;;;;;5003830;28;20225;-91
2021/11/16 07:37:39;;;;;;;22.63;18.27;;;8.00;98.90;;;;;;5025165;28;20182;-91
2021/11/16 07:40:12;;;;;;;24.27;20.20;;;8.10;98.10;;;;;;5023180;28;20204;-90
2021/11/16 07:42:51;;;;;;;22.67;18.60;;;8.20;97.40;;;;;;5023696;28;20253;-91
2021/11/16 07:45:20;;;;;;;23.17;18.93;;;8.30;97.60;;;;;;5024985;28;20693;-90
2021/11/16 07:47:55;;;;;;;23.23;19.77;;;8.20;97.80;;;;;;5022835;28;20194;-90
2021/11/16 07:50:38;;;;;;;23.13;18.43;;;8.20;97.70;;;;;;5022271;28;20667;-92
2021/11/16 07:53:14;;;;;;;23.63;19.40;;;8.10;98.10;;;;;;5026267;28;20189;-91
2021/11/16 07:55:43;;;;;;;23.50;19.47;;;8.10;98.70;;;;;;5012188;28;20225;-90
2021/11/16 07:58:12;;;;;;;22.87;19.83;;;8.10;98.50;;;;;;5025882;28;20182;-91
2021/11/16 08:00:41;;;;;;;23.00;18.97;;;8.10;98.60;;;;;;5006262;28;20275;-90
2021/11/16 08:03:14;;;;;;;23.93;19.80;;;8.20;98.30;;;;;;5022390;28;20195;-91
2021/11/16 08:08:18;;;;;;;28.07;21.33;;;8.30;98.10;;;;;;5024188;28;20189;-92
2021/11/16 08:10:47;;;;;;;22.73;18.80;;;8.40;97.90;;;;;;5007072;28;20207;-91
2021/11/16 08:13:19;;;;;;;26.33;19.83;;;8.30;98.30;;;;;;5022419;28;20181;-90
2021/11/16 08:15:45;;;;;;;25.87;19.70;;;8.10;98.60;;;;;;5006327;28;20205;-91
2021/11/16 08:18:14;;;;;;;24.77;20.03;;;8.20;98.70;;;;;;5022684;28;20243;-91
2021/11/16 08:20:41;;;;;;;24.93;21.70;;;8.10;98.90;;;;;;5023268;28;20212;-90
2021/11/16 08:23:08;;;;;;;25.37;20.83;;;8.10;99.00;;;;;;5006265;28;20209;-90
2021/11/16 08:25:38;;;;;;;22.80;19.07;;;8.20;98.40;;;;;;5021541;28;20217;-91
2021/11/16 08:28:08;;;;;;;26.47;20.10;;;8.20;98.30;;;;;;5005733;28;20189;-92
2021/11/16 08:30:35;;;;;;;21.30;18.07;;;8.30;97.60;;;;;;5014676;28;20207;-91
2021/11/16 08:33:05;;;;;;;26.00;19.83;;;8.30;98.00;;;;;;5006059;28;20190;-91
2021/11/16 08:35:32;;;;;;;25.90;20.27;;;8.40;97.30;;;;;;5021697;28;20222;-93
2021/11/16 08:38:11;;;;;;;25.07;20.03;;;8.30;98.20;;;;;;5023847;28;20190;-91
2021/11/16 08:40:38;;;;;;;24.57;20.23;;;8.20;98.20;;;;;;5020944;28;20240;-90
2021/11/16 08:43:12;;;;;;;25.13;20.40;;;8.30;98.70;;;;;;5004926;28;20183;-90
2021/11/16 08:45:43;;;;;;;26.03;20.23;;;8.30;98.20;;;;;;5018034;28;20281;-91
2021/11/16 08:48:21;;;;;;;28.07;21.13;;;8.30;98.50;;;;;;5017212;28;20672;-91
2021/11/16 08:50:50;;;;;;;29.93;20.80;;;8.30;98.20;;;;;;5014838;28;20732;-92
2021/11/16 08:53:26;;;;;;;25.33;20.37;;;8.40;98.50;;;;;;5018117;28;20185;-91
2021/11/16 08:55:52;;;;;;;28.93;21.83;;;8.50;98.60;;;;;;5000450;28;20205;-91
2021/11/16 08:58:18;;;;;;;25.67;20.27;;;8.40;98.60;;;;;;5000078;28;20200;-92
2021/11/16 09:00:51;;;;;;;25.00;20.57;;;8.40;98.70;;;;;;5019507;28;20202;-93
2021/11/16 09:03:25;;;;;;;24.30;18.63;;;8.40;98.50;;;;;;4984173;28;20229;-91
2021/11/16 09:05:52;;;;;;;24.80;20.40;;;8.40;98.20;;;;;;5019260;28;20288;-92
2021/11/16 09:08:26;;;;;;;25.97;20.77;;;8.40;98.70;;;;;;5022277;28;20170;-91
2021/11/16 09:10:58;;;;;;;27.77;21.20;;;8.40;98.70;;;;;;5004170;28;20201;-91
2021/11/16 09:13:27;;;;;;;25.63;19.67;;;8.40;98.50;;;;;;5018210;28;20173;-92
2021/11/16 09:16:03;;;;;;;23.70;19.70;;;8.30;98.70;;;;;;5022078;28;20223;-92
2021/11/16 09:18:36;;;;;;;26.10;21.00;;;8.30;99.20;;;;;;5038252;28;20185;-92
2021/11/16 09:21:08;;;;;;;22.70;19.33;;;8.40;99.00;;;;;;5039330;28;20205;-92
2021/11/16 09:23:40;;;;;;;27.97;20.67;;;8.50;98.30;;;;;;5026259;28;20239;-92
2021/11/16 09:28:57;;;;;;;25.63;20.13;;;8.30;99.90;;;;;;5024139;28;20181;-92
2021/11/16 09:31:29;;;;;;;27.60;20.00;;;8.20;99.90;;;;;;5019502;28;20564;-91
2021/11/16 09:34:02;;;;;;;26.57;20.47;;;8.20;99.90;;;;;;5003316;28;20200;-92
2021/11/16 09:36:36;;;;;;;27.53;21.30;;;8.30;99.90;;;;;;5022439;28;20232;-92
2021/11/16 09:39:11;;;;;;;25.40;20.00;;;8.20;99.90;;;;;;5016784;28;20727;-89
2021/11/16 09:41:40;;;;;;;25.43;20.80;;;8.30;99.50;;;;;;5023636;28;20303;-92
2021/11/16 09:44:22;;;;;;;25.47;19.47;;;8.40;99.20;;;;;;5024337;28;20185;-90
2021/11/16 09:46:47;;;;;;;28.53;21.00;;;8.30;98.90;;;;;;5008163;28;20190;-90
2021/11/16 09:49:16;;;;;;;24.17;18.07;;;8.40;99.00;;;;;;5014825;28;20193;-90
2021/11/16 09:51:53;;;;;;;26.17;20.30;;;8.40;99.30;;;;;;5006071;28;20194;-89
2021/11/16 09:54:19;;;;;;;23.77;19.87;;;8.40;99.80;;;;;;5022604;28;20182;-88
2021/11/16 09:56:46;;;;;;;26.20;19.40;;;8.60;98.90;;;;;;5019369;28;20197;-88
2021/11/16 09:59:25;;;;;;;40.80;21.63;;;8.60;98.70;;;;;;5022444;28;20196;-88
2021/11/16 10:01:50;;;;;;;36.63;19.80;;;8.50;99.10;;;;;;5023019;28;20205;-88
2021/11/16 10:04:25;;;;;;;33.10;21.33;;;8.50;98.60;;;;;;5021000;28;20200;-89
2021/11/16 10:06:53;;;;;;;29.23;19.67;;;8.40;99.80;;;;;;5020261;28;20216;-88
2021/11/16 10:09:18;;;;;;;26.10;20.30;;;8.40;99.60;;;;;;5020210;28;20568;-87
2021/11/16 10:11:50;;;;;;;25.47;19.80;;;8.50;98.60;;;;;;5021638;28;20186;-91
2021/11/16 10:14:18;;;;;;;26.50;20.23;;;8.50;98.60;;;;;;5020119;28;20211;-89
2021/11/16 10:16:46;;;;;;;25.33;19.87;;;8.60;98.50;;;;;;5022321;28;20225;-89
2021/11/16 10:19:12;;;;;;;27.83;20.17;;;8.50;98.40;;;;;;5022094;28;20444;-88
2021/11/16 10:21:38;;;;;;;26.07;19.60;;;8.60;99.40;;;;;;5022367;28;20280;-91
2021/11/16 10:24:31;;;;;;;26.13;20.70;;;8.50;98.20;;;;;;5023203;28;20190;-89
2021/11/16 10:27:03;;;;;;;26.73;20.37;;;8.50;98.40;;;;;;5018515;28;20724;-90
2021/11/16 10:29:30;;;;;;;26.43;20.60;;;8.60;98.70;;;;;;5021815;28;20277;-90
2021/11/16 10:31:56;;;;;;;25.80;20.77;;;8.50;98.50;;;;;;5021921;28;20221;-90
2021/11/16 10:34:40;;;;;;;25.60;20.70;;;8.40;99.00;;;;;;5004875;28;20193;-91
2021/11/16 10:37:07;;;;;;;31.27;22.93;;;8.30;99.90;;;;;;5025233;28;20185;-91
2021/11/16 10:39:34;;;;;;;25.57;20.80;;;8.30;99.90;;;;;;5022358;28;20692;-89
2021/11/16 10:42:04;;;;;;;22.07;19.10;;;8.30;99.90;;;;;;5025226;28;20192;-91
2021/11/16 10:44:31;;;;;;;24.77;21.47;;;8.40;99.90;;;;;;5006867;28;20794;-91
2021/11/16 10:47:01;;;;;;;25.30;19.27;;;8.40;99.30;;;;;;5025487;28;20236;-92
2021/11/16 10:49:27;;;;;;;26.23;21.07;;;8.40;98.60;;;;;;5026862;28;20201;-90
2021/11/16 10:51:53;;;;;;;27.63;22.60;;;8.40;98.70;;;;;;5046444;28;20185;-91
2021/11/16 10:54:19;;;;;;;26.77;22.00;;;8.20;99.60;;;;;;5011474;28;20217;-90
2021/11/16 10:56:47;;;;;;;28.63;22.73;;;8.10;99.90;;;;;;5017450;28;20243;-90
2021/11/16 10:59:18;;;;;;;28.67;22.13;;;8.10;99.90;;;;;;5022466;28;20182;-90
2021/11/16 11:01:50;;;;;;;25.40;22.13;;;8.30;99.90;;;;;;5033650;28;20197;-90
2021/11/16 11:04:18;;;;;;;25.93;20.53;;;8.40;99.50;;;;;;5035090;28;20229;-90
2021/11/16 11:06:45;;;;;;;26.27;20.37;;;8.50;97.80;;;;;;5025941;28;20196;-89
2021/11/16 11:09:14;;;;;;;27.73;20.77;;;8.40;99.50;;;;;;5016844;28;20484;-90
2021/11/16 11:11:43;;;;;;;28.17;22.27;;;8.30;99.20;;;;;;5025093;28;20190;-89
2021/11/16 11:14:21;;;;;;;23.33;20.00;;;8.30;99.90;;;;;;5012173;28;20248;-89
2021/11/16 11:16:59;;;;;;;27.90;20.33;;;8.40;99.50;;;;;;5034686;28;20205;-90
2021/11/16 11:19:34;;;;;;;24.63;20.10;;;8.50;98.90;;;;;;5009142;28;20193;-89
2021/11/16 11:22:11;;;;;;;25.07;19.33;;;8.50;98.80;;;;;;5020482;28;20182;-90
2021/11/16 11:27:27;;;;;;;26.13;21.27;;;8.60;98.10;;;;;;5045222;28;20165;-91
2021/11/16 11:29:56;;;;;;;27.50;20.00;;;8.60;98.50;;;;;;5044405;28;20191;-90
2021/11/16 11:32:21;;;;;;;24.60;21.13;;;8.60;97.10;;;;;;5037746;28;20236;-88
2021/11/16 11:35:03;;;;;;;23.70;20.37;;;8.50;97.10;;;;;;5026150;28;20202;-89
2021/11/16 11:37:37;;;;;;;28.47;20.10;;;8.40;97.90;;;;;;5024287;28;20193;-90
2021/11/16 11:40:08;;;;;;;27.27;21.07;;;8.40;99.50;;;;;;5023924;28;20240;-89
2021/11/16 11:42:40;;;;;;;25.13;20.67;;;8.50;99.50;;;;;;5024839;28;20188;-89
2021/11/16 11:45:25;;;;;;;26.23;21.70;;;8.40;99.20;;;;;;5023048;28;20680;-89
2021/11/16 11:48:06;;;;;;;25.40;20.80;;;8.30;99.40;;;;;;5024770;28;20703;-88
2021/11/16 11:50:39;;;;;;;24.87;20.07;;;8.40;98.60;;;;;;5024855;28;20193;-91
2021/11/16 11:53:19;;;;;;;25.47;20.70;;;8.50;97.30;;;;;;5025464;28;20288;-92
2021/11/16 11:55:49;;;;;;;25.30;19.50;;;8.70;97.20;;;;;;5024238;28;20591;-92
2021/11/16 11:58:17;;;;;;;22.90;18.33;;;8.70;97.10;;;;;;5023484;28;20571;-91
2021/11/16 12:00:46;;;;;;;22.43;19.00;;;8.70;96.10;;;;;;5023945;28;20285;-92
2021/11/16 12:03:12;;;;;;;22.73;19.53;;;8.70;96.60;;;;;;5022812;28;20201;-91
2021/11/16 12:05:41;;;;;;;26.30;19.17;;;8.60;97.50;;;;;;5026092;28;20233;-91
2021/11/16 12:08:09;;;;;;;25.07;19.73;;;8.70;95.70;;;;;;5024705;28;20190;-91
2021/11/16 12:10:38;;;;;;;21.90;18.53;;;8.70;95.50;;;;;;5032719;28;20197;-91
2021/11/16 12:13:05;;;;;;;24.30;19.10;;;8.60;96.00;;;;;;5026041;28;20716;-91
2021/11/16 12:15:37;;;;;;;26.43;20.40;;;8.80;96.30;;;;;;5032329;28;20210;-92
2021/11/16 12:18:03;;;;;;;23.40;19.23;;;8.80;96.30;;;;;;5024741;28;20268;-91
2021/11/16 12:20:54;;;;;;;36.63;22.77;;;8.70;96.20;;;;;;5028008;28;20242;-92
2021/11/16 12:23:47;;;;;;;20.87;18.67;;;8.80;95.10;;;;;;5022911;28;20219;-91
2021/11/16 12:26:15;;;;;;;35.87;23.93;;;8.90;94.50;;;;;;5039457;28;20209;-90
2021/11/16 12:28:41;;;;;;;32.80;21.47;;;8.90;95.20;;;;;;5007173;28;20225;-90
2021/11/16 12:31:23;;;;;;;25.90;19.57;;;8.90;95.50;;;;;;5024654;28;20532;-92
2021/11/16 12:33:50;;;;;;;30.13;21.97;;;8.90;95.20;;;;;;5023301;28;20201;-89
2021/11/16 12:36:26;;;;;;;24.33;20.00;;;8.80;95.40;;;;;;5023282;28;20236;-91
2021/11/16 12:38:52;;;;;;;32.57;20.63;;;8.90;95.90;;;;;;5023536;28;20245;-90
2021/11/16 12:41:27;;;;;;;31.30;20.40;;;8.90;95.30;;;;;;5024129;28;20229;-90
2021/11/16 12:43:55;;;;;;;24.37;19.40;;;8.80;96.10;;;;;;5022243;28;20217;-90
2021/11/16 12:46:23;;;;;;;27.33;22.83;;;8.90;96.20;;;;;;5023690;28;20202;-90
2021/11/16 12:48:55;;;;;;;32.13;21.00;;;8.90;95.30;;;;;;5023449;28;20220;-90
2021/11/16 12:51:27;;;;;;;25.20;21.03;;;8.80;96.00;;;;;;5023474;28;20181;-90
2021/11/16 12:54:21;;;;;;;27.43;21.53;;;8.70;95.80;;;;;;5021838;28;20198;-90
2021/11/16 12:56:47;;;;;;;26.33;21.37;;;8.70;96.80;;;;;;5020116;28;20198;-90
2021/11/16 12:59:20;;;;;;;24.80;20.67;;;8.50;96.70;;;;;;5019652;28;20636;-90
2021/11/16 13:02:00;;;;;;;31.00;27.23;;;8.60;97.10;;;;;;5018738;28;20718;-90
2021/11/16 13:04:44;;;;;;;27.07;21.53;;;8.80;95.60;;;;;;5017557;28;20273;-90
2021/11/16 13:07:28;;;;;;;25.97;19.73;;;8.80;95.40;;;;;;5023830;28;20190;-90
2021/11/16 13:10:09;;;;;;;27.77;21.33;;;8.80;95.60;;;;;;5023697;28;20183;-90
2021/11/16 13:12:43;;;;;;;29.33;23.73;;;8.80;95.20;;;;;;5025722;28;20191;-89
2021/11/16 13:15:25;;;;;;;30.53;25.30;;;8.80;95.50;;;;;;5024588;28;20226;-90
2021/11/16 13:18:31;;;;;;;24.10;20.20;;;8.80;95.40;;;;;;5026236;28;20191;-90
2021/11/16 13:21:14;;;;;;;45.27;31.93;;;8.90;95.10;;;;;;4955837;28;20227;-90
2021/11/16 13:23:43;;;;;;;36.53;27.83;;;8.90;95.00;;;;;;5021301;28;20242;-90
2021/11/16 13:26:25;;;;;;;27.53;22.50;;;8.90;95.00;;;;;;5007357;28;20210;-90
2021/11/16 13:29:20;;;;;;;26.60;21.60;;;8.80;95.00;;;;;;5025499;28;20189;-89
2021/11/16 13:32:08;;;;;;;25.67;21.30;;;8.80;95.00;;;;;;5025648;28;20198;-90
2021/11/16 13:34:44;;;;;;;23.57;20.67;;;8.60;95.80;;;;;;5028012;28;20284;-90
2021/11/16 13:37:11;;;;;;;26.50;19.73;;;8.60;96.40;;;;;;5025219;28;20244;-90